Airfield :
LOGIN :

Register | Disclaimer

   EN    FR    IT 

 










Legend :    VFR   Marginal VFR   IFR   Intensive IFR   Very Intensive IFR
Visi :
Ceiling :
>= 8 km
>= 3000ft
5 to 8 km
1000 to 3000 ft
1500m to 5 km
500 to 1000 ft
800 to 1500m
200 to 500 ft
< 800m
< 200 ft
Symbols :   Thunderstorms  Fog  Heavy snow  Heavy precipitations  Wind > 20 kt
SIGMETs :     Misc.  Thunderstorms  Icing  Turbulence  Mountain Waves  Volcanic Ashes







- Airport Elevation : 44 ft
- IATA code : SOU
- Download approach charts


EGHI - Southampton

CURRENT METAR :
  • 202150Z 01005KT 9000 NSC 00/M00 Q1005

EXPIRED METARs :
  • 202120Z 01004KT 9000 FEW020 00/M00 Q1005
  • 202050Z 02003KT 9000 FEW017 M00/M01 Q1005
  • 202020Z 03002KT 9000 FEW017 00/M01 Q1005
  • 201950Z 04004KT 9000 FEW017 01/M00 Q1005
  • 201920Z VRB03KT 9000 FEW017 01/00 Q1005

TAF TAF EGHI
Valid from the 20 at 21:00 until the 20 at 23:00 UTC


202000Z 2021/2023 04005KT 9999 SCT025
TEMPO 2021/2023 7000 SHRA
PROB30
TEMPO 2021/2023 05015G25KT 4000 +SHRA BKN012
ATIS : +44 23 8062 7103
No reported NOTAMs for that airfield.
1 SIGMET reported for the London FIR (EGTT) :
 
Severe mountain waves
EGTT SIGMET 04 VALID 202100/210100 EGRR
EGTT LONDON FIR SEV MTW FCST WI N5355 W00132 - N5232 W00304 - N5221 W00530 - N5500 W00530 - N5500 W00159 - N5355 W00132 FL030/120 MOV N 05KT NC=



MET'MAP, your aeronautical weather chart ! - Copyright ORBIFLY December 2007 - Disclaimer

ORBIFLY MET'MAP TEAM :

Programming & Development : Alexandra Zaïnal
Concept & Development : Baudouin d'Aumeries
Co-Development & Prog : Marc-Olivier Méhu
Technical & hardware support : Manuel Goepfert

Contact : metmap@orbifly.com




SOURCES & CREDITS :

   NOAA